Terminal Aerodrome Forecast
Issued by NWS Flagstaff, AZ

Home | Current Version | Previous Version | Text Only | Print | Product List | Glossary On
Versions: 1 2 3 4 5 6 7 8 9 10 11 12 13 14 15 16 17 18 19 20 21 22 23 24 25
483
FTUS45 KFGZ 220047 AAA
TAFFLG
TAF AMD
KFLG 220047Z 2201/2224 VRB05KT P6SM BKN060 BKN080
      TEMPO 2201/2204 5SM TSRA BKN045CB
     FM221800 21009KT P6SM FEW050 BKN090
      TEMPO 2219/2223 VRB10G20KT 5SM TSRA BKN045CB=

USA.gov is the U.S. government's official web portal to all federal, state and local government web resources and services.